createdAt,value
2022-11-26T00:02:26.487Z,77.64
2022-11-26T00:04:55.441Z,77.57
2022-11-26T00:07:27.801Z,77.61
2022-11-26T00:09:56.669Z,77.58
2022-11-26T00:12:34.551Z,78.00
2022-11-26T00:15:28.229Z,77.62
2022-11-26T00:17:56.002Z,77.74
2022-11-26T00:20:30.520Z,77.69
2022-11-26T00:23:01.415Z,78.12
2022-11-26T00:25:40.253Z,78.08
2022-11-26T00:28:32.172Z,78.96
2022-11-26T00:31:13.262Z,78.40
2022-11-26T00:33:40.133Z,78.14
2022-11-26T00:36:19.915Z,78.58
2022-11-26T00:38:52.072Z,78.23
2022-11-26T00:41:24.908Z,78.40
2022-11-26T00:43:51.820Z,78.17
2022-11-26T00:46:21.910Z,78.18
2022-11-26T00:48:48.958Z,78.12
2022-11-26T00:51:27.152Z,77.94
2022-11-26T00:53:56.437Z,78.00
2022-11-26T00:56:23.457Z,77.81
2022-11-26T00:58:51.138Z,77.65
2022-11-26T01:01:25.787Z,77.70
2022-11-26T01:03:53.235Z,77.66
2022-11-26T01:06:27.620Z,77.47
2022-11-26T01:08:54.481Z,77.59
2022-11-26T01:11:23.737Z,77.38
2022-11-26T01:13:53.483Z,77.49
2022-11-26T01:16:30.319Z,77.93
2022-11-26T01:19:02.264Z,77.76
2022-11-26T01:21:31.398Z,77.67
2022-11-26T01:23:58.257Z,77.46
2022-11-26T01:26:28.981Z,77.30
2022-11-26T01:28:56.186Z,77.43
2022-11-26T01:31:27.748Z,77.42
2022-11-26T01:33:55.081Z,77.70
2022-11-26T01:36:36.449Z,77.57
2022-11-26T01:39:10.837Z,77.88
2022-11-26T01:42:07.327Z,77.47
2022-11-26T01:44:36.855Z,77.51
2022-11-26T01:47:30.402Z,77.74
2022-11-26T01:50:28.624Z,77.79
2022-11-26T01:53:22.052Z,77.73
2022-11-26T01:55:53.898Z,77.97
2022-11-26T01:58:28.287Z,78.16
2022-11-26T02:00:55.496Z,78.04
2022-11-26T02:03:23.859Z,78.30
2022-11-26T02:06:05.776Z,78.36
2022-11-26T02:08:34.464Z,78.01
2022-11-26T02:11:18.755Z,78.22
2022-11-26T02:13:48.749Z,78.38
2022-11-26T02:16:48.063Z,77.94
2022-11-26T02:19:53.181Z,77.97
2022-11-26T02:22:50.149Z,78.02
2022-11-26T02:26:00.629Z,78.09
2022-11-26T02:29:05.597Z,78.24
2022-11-26T02:31:56.336Z,78.12
2022-11-26T02:34:54.258Z,78.13
2022-11-26T02:37:35.188Z,78.25
2022-11-26T02:40:02.025Z,78.18
2022-11-26T02:42:33.575Z,77.85
2022-11-26T02:45:10.882Z,77.81
2022-11-26T02:47:41.491Z,77.97
2022-11-26T02:50:29.911Z,77.75
2022-11-26T02:52:58.852Z,77.90
2022-11-26T02:55:30.983Z,77.90
2022-11-26T02:57:58.337Z,78.14
2022-11-26T03:00:25.445Z,77.99
2022-11-26T03:03:08.713Z,77.80
2022-11-26T03:05:39.170Z,77.57
2022-11-26T03:08:07.568Z,77.99
2022-11-26T03:10:34.741Z,78.03
2022-11-26T03:13:01.599Z,77.98
2022-11-26T03:15:28.728Z,78.04
2022-11-26T03:17:55.562Z,77.90
2022-11-26T03:20:22.374Z,78.03
2022-11-26T03:22:49.464Z,77.71
2022-11-26T03:25:16.499Z,77.70
2022-11-26T03:27:43.418Z,77.50
2022-11-26T03:30:10.703Z,77.75
2022-11-26T03:32:37.651Z,77.74
2022-11-26T03:35:05.413Z,77.80
2022-11-26T03:37:32.288Z,77.77
2022-11-26T03:39:59.369Z,77.82
2022-11-26T03:42:26.494Z,77.88
2022-11-26T03:44:53.564Z,77.68
2022-11-26T03:47:20.925Z,78.09
2022-11-26T03:49:47.747Z,77.87
2022-11-26T03:52:14.670Z,77.94
2022-11-26T03:54:41.510Z,77.75
2022-11-26T03:57:08.376Z,77.81
2022-11-26T03:59:35.193Z,77.90
2022-11-26T04:02:02.671Z,78.20
2022-11-26T04:04:29.803Z,78.26
2022-11-26T04:06:56.755Z,78.03
2022-11-26T04:09:24.124Z,78.39
2022-11-26T04:11:51.029Z,78.45
2022-11-26T04:14:19.591Z,78.51
2022-11-26T04:16:46.677Z,78.19
2022-11-26T04:19:13.608Z,78.21
2022-11-26T04:21:40.606Z,78.17
2022-11-26T04:24:08.174Z,78.35
2022-11-26T04:26:35.063Z,78.13
2022-11-26T04:29:02.096Z,78.31
2022-11-26T04:31:28.920Z,78.20
2022-11-26T04:33:55.801Z,78.36
2022-11-26T04:36:23.558Z,78.47
2022-11-26T04:38:50.374Z,78.35
2022-11-26T04:41:17.276Z,78.25
2022-11-26T04:43:44.163Z,78.60
2022-11-26T04:46:11.033Z,78.44
2022-11-26T04:48:37.940Z,78.39
2022-11-26T04:51:04.853Z,78.30
2022-11-26T04:53:31.683Z,78.49
2022-11-26T04:55:58.536Z,78.32
2022-11-26T04:58:25.324Z,78.58
2022-11-26T05:00:52.453Z,78.79
2022-11-26T05:03:19.861Z,78.75
2022-11-26T05:05:47.219Z,78.32
2022-11-26T05:08:14.348Z,78.46
2022-11-26T05:10:41.644Z,78.68
2022-11-26T05:13:08.850Z,78.24
2022-11-26T05:15:35.642Z,78.12
2022-11-26T05:18:02.489Z,78.00
2022-11-26T05:20:29.360Z,78.10
2022-11-26T05:22:56.133Z,78.24
2022-11-26T05:25:22.967Z,78.06
2022-11-26T05:27:49.740Z,77.97
2022-11-26T05:30:16.649Z,78.02
2022-11-26T05:32:43.431Z,78.04
2022-11-26T05:35:10.470Z,78.13
2022-11-26T05:37:37.442Z,78.16
2022-11-26T05:40:05.843Z,78.57
2022-11-26T05:42:32.685Z,78.14
2022-11-26T05:44:59.505Z,78.58
2022-11-26T05:47:26.452Z,78.52
2022-11-26T05:49:53.477Z,78.78
2022-11-26T05:52:20.913Z,79.29
2022-11-26T05:54:47.847Z,78.99
2022-11-26T05:57:14.897Z,79.21
2022-11-26T05:59:41.877Z,79.09
2022-11-26T06:02:08.780Z,79.02
2022-11-26T06:04:35.725Z,78.83
2022-11-26T06:07:02.627Z,78.87
2022-11-26T06:09:29.415Z,78.77
2022-11-26T06:11:56.181Z,78.51
2022-11-26T06:14:23.056Z,78.53
2022-11-26T06:16:49.975Z,78.46
2022-11-26T06:19:16.889Z,78.41
2022-11-26T06:21:43.768Z,78.41
2022-11-26T06:24:11.100Z,78.55
2022-11-26T06:26:37.996Z,78.18
2022-11-26T06:29:04.859Z,77.87
2022-11-26T06:31:32.678Z,78.26
2022-11-26T06:33:59.815Z,78.14
2022-11-26T06:36:26.733Z,78.08
2022-11-26T06:38:53.551Z,78.22
2022-11-26T06:41:20.343Z,78.52
2022-11-26T06:43:47.123Z,78.53
2022-11-26T06:46:14.156Z,78.25
2022-11-26T06:48:41.253Z,78.13
2022-11-26T06:51:11.993Z,78.28
2022-11-26T06:53:38.834Z,78.51
2022-11-26T06:56:17.762Z,78.86
2022-11-26T06:58:46.915Z,78.51
2022-11-26T07:01:22.384Z,78.74
2022-11-26T07:03:49.493Z,78.52
2022-11-26T07:06:19.850Z,78.40
2022-11-26T07:08:47.892Z,78.64
2022-11-26T07:11:15.736Z,78.39
2022-11-26T07:13:42.931Z,78.76
2022-11-26T07:16:10.409Z,78.69
2022-11-26T07:18:37.449Z,78.88
2022-11-26T07:21:10.244Z,78.72
2022-11-26T07:23:37.098Z,78.62
2022-11-26T07:26:06.261Z,78.70
2022-11-26T07:28:34.547Z,78.53
2022-11-26T07:31:04.242Z,78.36
2022-11-26T07:33:31.218Z,78.12
2022-11-26T07:36:04.041Z,78.22
2022-11-26T07:38:31.564Z,78.20
2022-11-26T07:41:09.415Z,78.50
2022-11-26T07:43:39.084Z,77.59
2022-11-26T07:46:08.694Z,78.02
2022-11-26T07:48:36.561Z,77.53
2022-11-26T07:51:03.700Z,77.84
2022-11-26T07:53:36.364Z,77.65
2022-11-26T07:56:06.839Z,78.22
2022-11-26T07:58:33.746Z,77.29
2022-11-26T08:01:29.845Z,76.85
2022-11-26T08:03:58.519Z,77.12
2022-11-26T08:06:29.249Z,77.45
2022-11-26T08:08:56.244Z,77.16
2022-11-26T08:11:27.682Z,76.82
2022-11-26T08:13:58.493Z,76.67
2022-11-26T08:16:28.464Z,76.59
2022-11-26T08:18:58.360Z,76.35
2022-11-26T08:21:25.616Z,76.50
2022-11-26T08:23:54.008Z,76.00
2022-11-26T08:26:27.510Z,75.85
2022-11-26T08:28:59.508Z,75.88
2022-11-26T08:31:27.886Z,75.33
2022-11-26T08:33:59.839Z,74.80
2022-11-26T08:36:29.533Z,74.25
2022-11-26T08:38:57.046Z,74.40
2022-11-26T08:41:23.915Z,74.59
2022-11-26T08:44:06.200Z,75.15
2022-11-26T08:46:35.383Z,74.45
2022-11-26T08:49:02.391Z,74.85
2022-11-26T08:51:29.316Z,75.40
2022-11-26T08:53:56.200Z,75.58
2022-11-26T08:56:23.165Z,75.22
2022-11-26T08:58:51.373Z,74.93
2022-11-26T09:01:21.836Z,75.26
2022-11-26T09:03:54.473Z,75.37
2022-11-26T09:06:23.938Z,75.32
2022-11-26T09:09:09.813Z,74.52
2022-11-26T09:12:04.556Z,74.49
2022-11-26T09:14:38.372Z,73.79
2022-11-26T09:17:06.225Z,73.68
2022-11-26T09:19:33.625Z,72.40
2022-11-26T09:22:01.384Z,72.96
2022-11-26T09:24:28.455Z,72.20
2022-11-26T09:26:55.318Z,73.56
2022-11-26T09:29:23.579Z,73.43
2022-11-26T09:34:39.241Z,72.37
2022-11-26T09:37:06.599Z,72.10
2022-11-26T09:39:33.540Z,72.22
2022-11-26T09:42:08.232Z,72.07
2022-11-26T09:45:11.722Z,72.35
2022-11-26T09:47:45.595Z,72.66
2022-11-26T09:50:15.495Z,72.00
2022-11-26T09:52:59.678Z,71.96
2022-11-26T09:55:40.469Z,71.48
2022-11-26T09:58:26.927Z,71.07
2022-11-26T10:00:57.549Z,69.91
2022-11-26T10:03:37.023Z,70.12
2022-11-26T10:06:46.242Z,71.22
2022-11-26T10:09:30.931Z,71.41
2022-11-26T10:12:26.118Z,71.05
2022-11-26T10:15:17.353Z,71.54
2022-11-26T10:17:53.281Z,70.03
2022-11-26T10:20:37.843Z,70.02
2022-11-26T10:23:11.506Z,70.80
2022-11-26T10:25:58.471Z,69.47
2022-11-26T10:28:45.675Z,68.81
2022-11-26T10:31:33.920Z,68.05
2022-11-26T10:34:12.507Z,68.43
2022-11-26T10:36:41.827Z,68.72
2022-11-26T10:39:16.035Z,68.67
2022-11-26T10:41:43.561Z,68.88
2022-11-26T10:44:29.994Z,67.35
2022-11-26T10:46:58.211Z,67.46
2022-11-26T10:49:30.870Z,68.38
2022-11-26T10:52:04.191Z,69.23
2022-11-26T10:54:37.724Z,69.08
2022-11-26T10:57:19.044Z,69.07
2022-11-26T10:59:52.261Z,69.38
2022-11-26T11:02:39.065Z,69.67
2022-11-26T11:05:09.023Z,70.17
2022-11-26T11:07:38.576Z,69.81
2022-11-26T11:10:11.861Z,69.37
2022-11-26T11:12:45.387Z,69.93
2022-11-26T11:15:18.118Z,68.58
2022-11-26T11:17:47.474Z,68.89
2022-11-26T11:20:17.420Z,68.72
2022-11-26T11:22:45.690Z,68.60
2022-11-26T11:25:25.858Z,67.50
2022-11-26T11:27:55.407Z,68.13
2022-11-26T11:30:34.017Z,68.17
2022-11-26T11:33:22.611Z,67.55
2022-11-26T11:36:01.345Z,67.62
2022-11-26T11:38:46.511Z,67.04
2022-11-26T11:41:37.423Z,66.96
2022-11-26T11:44:19.537Z,65.33
2022-11-26T11:47:26.774Z,66.18
2022-11-26T11:50:18.744Z,65.41
2022-11-26T11:53:17.838Z,65.50
2022-11-26T11:56:08.880Z,66.18
2022-11-26T11:59:00.176Z,66.16
2022-11-26T12:02:05.452Z,67.52
2022-11-26T12:05:02.332Z,67.50
2022-11-26T12:07:41.154Z,67.78
2022-11-26T12:10:35.353Z,67.96
2022-11-26T12:13:06.136Z,68.14
2022-11-26T12:15:46.420Z,68.49
2022-11-26T12:18:39.974Z,68.67
2022-11-26T12:21:14.110Z,68.63
2022-11-26T12:24:04.937Z,69.00
2022-11-26T12:26:39.977Z,69.12
2022-11-26T12:29:29.616Z,68.83
2022-11-26T12:32:16.364Z,69.17
2022-11-26T12:34:49.436Z,68.64
2022-11-26T12:37:32.585Z,67.46
2022-11-26T12:40:37.985Z,68.06
2022-11-26T12:43:30.070Z,68.72
2022-11-26T12:46:16.954Z,68.72
2022-11-26T12:49:06.623Z,68.58
2022-11-26T12:52:18.528Z,68.79
2022-11-26T12:55:22.296Z,69.04
2022-11-26T12:57:57.305Z,68.84
2022-11-26T13:00:35.709Z,69.18
2022-11-26T13:03:06.236Z,69.17
2022-11-26T13:05:56.164Z,69.48
2022-11-26T13:08:34.703Z,69.67
2022-11-26T13:11:14.327Z,69.64
2022-11-26T13:13:58.369Z,69.49
2022-11-26T13:16:46.914Z,68.47
2022-11-26T13:19:37.289Z,68.28
2022-11-26T13:22:13.023Z,68.22
2022-11-26T13:25:16.507Z,68.03
2022-11-26T13:27:55.206Z,67.82
2022-11-26T13:30:35.073Z,67.42
2022-11-26T13:33:41.073Z,67.28
2022-11-26T13:36:23.965Z,66.58
2022-11-26T13:39:11.758Z,65.44
2022-11-26T13:42:04.016Z,64.96
2022-11-26T13:45:01.020Z,64.42
2022-11-26T13:47:35.713Z,64.01
2022-11-26T13:50:30.911Z,64.43
2022-11-26T13:53:05.359Z,63.46
2022-11-26T13:55:48.587Z,62.53
2022-11-26T13:58:25.536Z,59.67
2022-11-26T14:00:52.464Z,52.26
2022-11-26T14:03:55.372Z,50.51
2022-11-26T14:06:22.951Z,50.15
2022-11-26T14:08:52.758Z,46.89
2022-11-26T14:11:45.577Z,46.10
2022-11-26T14:14:24.545Z,48.40
2022-11-26T14:17:08.892Z,50.30
2022-11-26T14:19:41.084Z,53.88
2022-11-26T14:22:31.874Z,50.79
2022-11-26T14:25:08.087Z,48.06
2022-11-26T14:27:49.799Z,48.77
2022-11-26T14:30:27.485Z,51.07
2022-11-26T14:33:04.578Z,53.59
2022-11-26T14:35:35.710Z,53.71
2022-11-26T14:38:05.934Z,53.35
2022-11-26T14:40:36.955Z,54.11
2022-11-26T14:43:20.048Z,56.03
2022-11-26T14:46:14.168Z,57.70
2022-11-26T14:48:47.265Z,58.56
2022-11-26T14:51:23.296Z,59.54
2022-11-26T14:53:51.253Z,60.36
2022-11-26T14:56:19.954Z,61.20
2022-11-26T14:58:54.164Z,61.29
2022-11-26T15:01:27.279Z,62.34
2022-11-26T15:04:04.982Z,63.13
2022-11-26T15:06:42.720Z,63.63
2022-11-26T15:09:21.650Z,65.20
2022-11-26T15:12:14.902Z,65.90
2022-11-26T15:14:47.595Z,66.29
2022-11-26T15:17:17.880Z,66.35
2022-11-26T15:19:45.696Z,66.68
2022-11-26T15:22:32.589Z,67.82
2022-11-26T15:24:59.503Z,67.92
2022-11-26T15:27:36.263Z,68.08
2022-11-26T15:30:17.226Z,68.47
2022-11-26T15:32:44.085Z,68.76
2022-11-26T15:35:15.243Z,68.63
2022-11-26T15:37:42.271Z,68.96
2022-11-26T15:40:24.166Z,69.17
2022-11-26T15:43:00.978Z,69.50
2022-11-26T15:45:41.858Z,69.77
2022-11-26T15:48:29.820Z,70.24
2022-11-26T15:51:15.737Z,70.45
2022-11-26T15:53:47.985Z,70.87
2022-11-26T15:56:24.322Z,70.90
2022-11-26T15:59:05.778Z,71.19
2022-11-26T16:01:35.585Z,71.63
2022-11-26T16:04:06.454Z,71.46
2022-11-26T16:06:40.291Z,71.54
2022-11-26T16:09:13.548Z,71.46
2022-11-26T16:11:58.606Z,71.56
2022-11-26T16:14:35.190Z,71.81
2022-11-26T16:17:10.890Z,72.02
2022-11-26T16:19:54.689Z,71.93
2022-11-26T16:22:28.338Z,72.51
2022-11-26T16:25:16.243Z,72.88
2022-11-26T16:27:49.152Z,72.90
2022-11-26T16:30:17.892Z,73.04
2022-11-26T16:32:44.714Z,73.16
2022-11-26T16:35:37.554Z,73.27
2022-11-26T16:37:58.878Z,73.12
2022-11-26T16:40:26.662Z,73.10
2022-11-26T16:42:53.639Z,73.37
2022-11-26T16:45:20.553Z,74.19
2022-11-26T16:47:51.904Z,74.47
2022-11-26T16:50:25.162Z,74.35
2022-11-26T16:52:54.148Z,75.11
2022-11-26T16:55:25.425Z,74.52
2022-11-26T16:57:57.012Z,74.27
2022-11-26T17:00:26.161Z,74.08
2022-11-26T17:02:54.154Z,74.27
2022-11-26T17:05:22.570Z,74.52
2022-11-26T17:07:55.570Z,75.33
2022-11-26T17:10:29.133Z,75.08
2022-11-26T17:12:57.020Z,74.88
2022-11-26T17:15:24.247Z,75.71
2022-11-26T17:17:54.613Z,75.55
2022-11-26T17:20:27.237Z,75.17
2022-11-26T17:22:54.703Z,75.19
2022-11-26T17:25:21.596Z,75.28
2022-11-26T17:27:48.705Z,74.94
2022-11-26T17:30:23.884Z,74.69
2022-11-26T17:32:51.641Z,74.81
2022-11-26T17:35:18.824Z,74.54
2022-11-26T17:37:46.005Z,74.69
2022-11-26T17:40:23.686Z,74.42
2022-11-26T17:42:51.174Z,74.56
2022-11-26T17:45:19.270Z,74.33
2022-11-26T17:47:46.380Z,74.69
2022-11-26T17:50:26.013Z,74.62
2022-11-26T17:52:54.491Z,74.77
2022-11-26T17:55:24.193Z,74.63
2022-11-26T17:57:51.510Z,75.07
2022-11-26T18:00:22.877Z,74.92
2022-11-26T18:02:49.871Z,75.14
2022-11-26T18:05:16.893Z,75.02
2022-11-26T18:07:43.763Z,74.75
2022-11-26T18:10:14.395Z,75.03
2022-11-26T18:12:42.188Z,75.06
2022-11-26T18:15:09.394Z,74.79
2022-11-26T18:17:36.285Z,75.46
2022-11-26T18:20:03.285Z,74.75
2022-11-26T18:22:30.321Z,74.19
2022-11-26T18:24:58.405Z,74.05
2022-11-26T18:27:29.157Z,74.33
2022-11-26T18:29:56.152Z,74.10
2022-11-26T18:32:23.547Z,74.54
2022-11-26T18:34:50.931Z,74.75
2022-11-26T18:37:18.660Z,75.11
2022-11-26T18:39:45.731Z,75.13
2022-11-26T18:45:00.952Z,75.31
2022-11-26T18:47:27.826Z,75.22
2022-11-26T18:49:54.700Z,75.13
2022-11-26T18:52:21.487Z,75.72
2022-11-26T18:54:48.302Z,75.28
2022-11-26T18:57:15.290Z,75.34
2022-11-26T18:59:42.575Z,75.04
2022-11-26T19:02:11.100Z,74.93
2022-11-26T19:04:39.204Z,75.42
2022-11-26T19:07:06.089Z,74.92
2022-11-26T19:09:33.081Z,75.26
2022-11-26T19:12:00.375Z,75.08
2022-11-26T19:14:27.257Z,74.93
2022-11-26T19:16:54.233Z,74.61
2022-11-26T19:19:21.398Z,74.68
2022-11-26T19:21:49.746Z,74.41
2022-11-26T19:24:16.937Z,74.39
2022-11-26T19:26:44.290Z,74.43
2022-11-26T19:29:12.898Z,74.52
2022-11-26T19:31:40.175Z,74.29
2022-11-26T19:34:14.750Z,74.22
2022-11-26T19:36:41.579Z,74.56
2022-11-26T19:39:08.932Z,74.64
2022-11-26T19:41:35.799Z,75.15
2022-11-26T19:44:04.018Z,75.36
2022-11-26T19:46:31.437Z,75.48
2022-11-26T19:48:58.407Z,75.27
2022-11-26T19:51:27.765Z,75.98
2022-11-26T19:53:56.350Z,75.95
2022-11-26T19:56:31.495Z,74.92
2022-11-26T19:59:01.963Z,74.17
2022-11-26T20:01:34.411Z,74.98
2022-11-26T20:04:05.176Z,75.45
2022-11-26T20:06:35.038Z,75.52
2022-11-26T20:09:04.299Z,75.85
2022-11-26T20:11:31.270Z,75.50
2022-11-26T20:13:58.733Z,75.79
2022-11-26T20:16:29.841Z,75.43
2022-11-26T20:18:58.360Z,74.94
2022-11-26T20:21:30.831Z,75.11
2022-11-26T20:24:01.391Z,74.62
2022-11-26T20:26:38.663Z,75.00
2022-11-26T20:29:14.808Z,74.37
2022-11-26T20:31:48.875Z,74.41
2022-11-26T20:34:18.767Z,74.33
2022-11-26T20:36:45.838Z,74.19
2022-11-26T20:39:19.749Z,74.57
2022-11-26T20:41:47.143Z,74.50
2022-11-26T20:44:14.366Z,74.54
2022-11-26T20:46:41.992Z,74.47
2022-11-26T20:49:11.307Z,74.67
2022-11-26T20:51:39.092Z,74.58
2022-11-26T20:54:05.946Z,74.90
2022-11-26T20:56:33.241Z,75.07
2022-11-26T20:59:02.124Z,74.91
2022-11-26T21:01:29.902Z,74.65
2022-11-26T21:03:57.426Z,74.57
2022-11-26T21:06:30.190Z,74.81
2022-11-26T21:09:01.158Z,74.33
2022-11-26T21:11:29.254Z,74.41
2022-11-26T21:13:58.817Z,74.72
2022-11-26T21:16:25.869Z,74.43
2022-11-26T21:18:54.521Z,74.61
2022-11-26T21:21:23.667Z,74.51
2022-11-26T21:23:51.049Z,74.64
2022-11-26T21:26:25.077Z,75.04
2022-11-26T21:28:57.218Z,74.87
2022-11-26T21:31:25.968Z,75.50
2022-11-26T21:34:02.501Z,75.42
2022-11-26T21:36:32.036Z,75.39
2022-11-26T21:39:00.092Z,75.31
2022-11-26T21:41:27.584Z,75.29
2022-11-26T21:43:55.392Z,75.29
2022-11-26T21:46:26.286Z,75.37
2022-11-26T21:48:54.433Z,75.01
2022-11-26T21:51:23.425Z,74.93
2022-11-26T21:53:50.589Z,74.74
2022-11-26T21:56:20.569Z,74.62
2022-11-26T21:58:48.151Z,74.48
2022-11-26T22:01:34.362Z,73.98
2022-11-26T22:04:05.103Z,74.13
2022-11-26T22:06:32.101Z,74.25
2022-11-26T22:08:59.275Z,73.74
2022-11-26T22:11:29.585Z,74.58
2022-11-26T22:13:56.816Z,74.81
2022-11-26T22:16:26.073Z,74.85
2022-11-26T22:18:54.154Z,75.17
2022-11-26T22:21:29.200Z,75.20
2022-11-26T22:23:57.207Z,75.53
2022-11-26T22:26:25.281Z,75.74
2022-11-26T22:28:52.542Z,75.53
2022-11-26T22:31:22.060Z,76.23
2022-11-26T22:33:49.999Z,76.28
2022-11-26T22:36:16.830Z,76.14
2022-11-26T22:38:43.702Z,75.84
2022-11-26T22:41:13.522Z,76.18
2022-11-26T22:43:41.457Z,76.12
2022-11-26T22:46:13.547Z,76.00
2022-11-26T22:48:41.490Z,76.30
2022-11-26T22:51:09.219Z,76.18
2022-11-26T22:53:36.813Z,76.36
2022-11-26T22:56:05.386Z,76.22
2022-11-26T22:58:34.377Z,76.06
2022-11-26T23:01:09.053Z,75.90
2022-11-26T23:03:38.086Z,75.60
2022-11-26T23:06:10.742Z,75.46
2022-11-26T23:08:39.191Z,75.38
2022-11-26T23:11:16.256Z,75.10
2022-11-26T23:13:45.655Z,75.17
2022-11-26T23:16:13.032Z,74.70
2022-11-26T23:18:40.355Z,75.09
2022-11-26T23:21:14.598Z,75.11
2022-11-26T23:23:42.409Z,75.10
2022-11-26T23:26:18.464Z,75.14
2022-11-26T23:28:47.339Z,75.49
2022-11-26T23:31:21.265Z,76.90
2022-11-26T23:33:49.483Z,76.61
2022-11-26T23:36:20.434Z,76.05
2022-11-26T23:38:47.780Z,75.47
2022-11-26T23:41:15.021Z,75.14
2022-11-26T23:43:42.265Z,75.07
2022-11-26T23:46:33.039Z,75.61
2022-11-26T23:48:59.879Z,75.44
2022-11-26T23:51:30.207Z,75.21
2022-11-26T23:53:57.099Z,74.72
2022-11-26T23:56:30.048Z,75.20
2022-11-26T23:59:01.510Z,75.10
